Saturday, January 31, 2015
08:35 UTC
  |  Log In   |  Register Free
Airport Search:

Enterprise Municipal Airport
(KEDN)

Enterprise Municipal Airport Diagram
No Airport Diagram Available

FAA data valid effective January 08, 2015 - March 05, 2015 (unless otherwise noted).

 
 
 
 
 
 
 
 
 
 
 
 
 
 

Current Aviation Weather for Enterprise Municipal Airport (KEDN)

The most recent METAR observation for KEDN was updated at: 0813
METAR Summary (Translated METAR)
KEDN
310755Z AUTO 00000KT 10SM CLR 03/M04 A3033 RMK AO2
KSXS
310756Z AUTO 36003KT 10SM CLR 03/M04 A3034 RMK AO2 SLP277 T00341041
(4.6 nm NE from KEDN)
KLOR
310753Z AUTO 02003KT 10SM CLR 03/M04 A3032 RMK AO2 SLP265 T00281039
(8.3 nm NE from KEDN)
TAF
No TAF information found within 50 nm of KLOR
  Airport Weather Conditions for KEDN

 Current Weather at EDN
37° F
Fair
North winds at 3.5 mph
EDN NOAA Radar

Pressure: 30.32 in
Humidity: 60%
Wind: North at 3.5 MPH (3 KT)
Dew Point: 24.8°F
Visibility: 10.00 mi


Airport Weather Forecast for KEDN

Translated METAR and TAF for KLOR
Translated METAR for KLOR (0835 UTC 31 January 2015)
found at http://aviationweather.gov/adds/metars/
 
METAR text: KLOR 310753Z AUTO 02003KT 10SM CLR 03/M04 A3032 RMK AO2 SLP265 T00281039
Conditions at: KLOR (LOWE AHP/FT. RUC, AL, US) observed 0753 UTC 31 January 2015
Temperature: 2.8°C (37°F)
Dewpoint: -3.9°C (25°F) [RH = 61%]
Pressure (altimeter): 30.32 inches Hg (1026.8 mb)
[Sea-level pressure: 1026.5 mb]
Winds: from the NNE (20 degrees) at 3 MPH (3 knots; 1.6 m/s)
Visibility: 10 or more miles (16+ km)
Ceiling: at least 12,000 feet AGL
Clouds: sky clear below 12,000 feet AGL
Weather: automated observation with no human augmentation;
there may or may not be significant weather present at this time
Translated TAF for KLOR

There is no translated TAF available for this airport

Find All Airport Services Find A Hotel Find A Rental Car Find A Golf Course Find A Restaurant $100 Hamburger



FBO's on the Field
FBO Company Facility Photos Services Transportation Aviation Fuel Prices: Prices include tax
Catering Weather Repair Courtesy Rental Type 100LL JetA JetA+ MOGAS 8087
 
Enterprise Municipal Airport

This FBO has not yet been rated
FS:Epic
Last Updated: Jan-20
Login to update fuel prices
SS:
Contact Enterprise Municipal AirportMore FBO Information
 
Add another FBO Facility Photos Catering Weather Repair Courtesy Rental Type 100LL JetA JetA+ MOGAS 8087
Services Transportation Aviation Fuel Prices: Prices include tax


model-print
model-print
model-print
model-print